Ternat, Belgium
Current Conditions -  °F | °C
As of 2:50 PM on Thursday 29 Jan 2015 (Local Time) from EBBR Reporting Station
Broken Clouds Broken Clouds  
Wind Chill: 30°   Ceiling: 1700
Heat Index: 39°   Visibility: 6mi
Dew Point: 34°   Wind: 20mph
Humidity: 81%   Direction: 220°SW
Pressure: 29"   Gusts: NA
Location:  50.87°N, 4.17°E
Report Text: EBBR 291350Z 22017KT 9999 BKN017 04/01 Q0982 TEMPO 23020G32KT
Loading
Personal Weather Stations






























Interactive Weather Map New forecast layout! Learn more

10-Day Weather Forecast

Advertisements
Track Severe Weather on mobile